Evansville (EVV/KEVV)

Map

Destinations

Information

Location
Evansville, IN
Local Time
23:36 / 11:36 pm
GMT Time
03:36 / 3:36 am
Gates
A2
No FAA reported delays
METAR KEVV 260254Z 25003KT 10SM CLR 17/12 A2980 RMK AO2 SLP089 T01670122 53022
TAF KEVV 252320Z 2600/2624 22003KT P6SM SCT250 FM261500 17009KT P6SM FEW080 SCT200 FM261900 20010G20KT P6SM SCT060